Latest Weather Observations for Naracoorte

IDS60801

Issued at 6:02 pm CDT Friday 9 December 2016 (issued every 30 minutes, with the page automatically refreshed every 10 minutes)

About weather observations | Map of weather stations | Latest weather observations for SA | Other Formats
Station Details ID: 026099 Name: NARACOORTE AERODROME Lat: -36.98 Lon: 140.73 Height: 49.72 m
Data from the previous 72 hours. | See also: Recent months at Naracoorte
Date/Time
CDT
Temp
°C
App
Temp
°C
Dew
Point
°C
Rel
Hum
%
Delta-T
°C
Wind Press
QNH
hPa
Press
MSL
hPa
Rain since
9am
mm
Dir  Spd
km/h
Gust
km/h
Spd
kts
Gust
kts
09/06:00pm 15.7 11.0 6.2 53 4.6 SSW 20 24 11 13 1021.7 - -
09/05:30pm 16.1 11.1 6.5 53 4.7 SSW 22 28 12 15 1021.5 1021.4 0.0
09/05:00pm 16.2 10.4 6.3 52 4.8 S 26 33 14 18 1021.4 1021.3 0.0
09/04:30pm 16.9 11.6 6.7 51 5.0 S 24 35 13 19 1021.4 1021.3 0.0
09/04:00pm 17.9 13.1 5.5 44 6.0 SSW 20 28 11 15 1021.3 1021.2 0.0
09/03:30pm 17.7 12.4 5.0 43 6.1 S 22 30 12 16 1021.3 1021.2 0.0
09/03:00pm 17.5 12.6 5.1 44 5.9 S 20 32 11 17 1021.3 1021.2 0.0
09/02:30pm 18.1 13.5 5.7 44 6.0 S 19 28 10 15 1021.2 1021.1 0.0
09/02:00pm 17.9 12.8 4.1 40 6.5 S 20 30 11 16 1021.2 1021.1 0.0
09/01:30pm 16.7 11.3 4.7 45 5.7 S 22 35 12 19 1021.4 1021.3 0.0
09/01:00pm 16.9 12.3 3.9 42 6.1 S 17 24 9 13 1021.4 1021.3 0.0
09/12:30pm 16.1 11.3 4.5 46 5.4 SW 19 28 10 15 1021.5 1021.4 0.0
09/12:00pm 15.9 11.1 5.5 50 5.0 SW 20 28 11 15 1021.6 1021.5 0.0
09/11:30am 15.1 9.1 5.3 52 4.6 SW 26 35 14 19 1021.6 1021.5 0.0
09/11:00am 15.1 9.5 5.6 53 4.5 SSW 24 35 13 19 1021.4 1021.3 0.0
09/10:30am 14.6 9.5 5.9 56 4.1 SSW 22 30 12 16 1021.2 1021.1 0.0
09/10:00am 14.1 8.5 5.5 56 4.1 SSW 24 37 13 20 1020.9 1020.8 0.0
09/09:30am 13.7 7.9 6.1 60 3.6 S 26 32 14 17 1020.7 1020.6 0.0
09/09:00am 13.7 8.5 5.6 58 3.8 SSW 22 30 12 16 1020.4 1020.3 2.0
09/08:30am 13.8 9.7 6.4 61 3.5 SSW 17 24 9 13 1019.9 1019.8 2.0
09/08:00am 12.7 9.0 7.8 72 2.4 SW 17 22 9 12 1019.5 1019.4 2.0
09/07:30am 10.6 7.5 7.1 79 1.7 WSW 13 17 7 9 1019.0 1018.8 2.0
09/07:00am 8.8 6.0 7.1 89 0.8 WSW 11 13 6 7 1018.5 1018.3 2.0
09/06:30am 8.2 4.9 6.5 89 0.8 W 13 13 7 7 1017.9 1017.7 2.0
09/06:00am 8.6 5.4 6.7 88 0.9 WSW 13 15 7 8 1017.4 1017.2 2.0
09/05:30am 8.3 5.2 7.2 93 0.5 WSW 13 13 7 7 1017.0 1016.8 2.0
09/05:00am 6.9 3.5 5.8 93 0.5 WSW 13 13 7 7 1016.4 1016.3 2.0
09/04:30am 7.1 4.0 5.7 91 0.6 WSW 11 13 6 7 1015.7 1015.6 2.0
09/04:00am 8.6 6.2 7.2 91 0.7 SW 9 11 5 6 1015.4 1015.3 2.0
09/03:30am 9.0 8.4 7.6 91 0.7 CALM 0 6 0 3 1015.2 1015.1 2.0
09/03:00am 9.2 6.5 7.5 89 0.8 SW 11 13 6 7 1014.8 1014.7 2.0
09/02:30am 9.0 6.3 7.3 89 0.8 SW 11 13 6 7 1014.7 1014.6 2.0
09/02:00am 9.8 6.4 7.7 87 1.0 SW 15 19 8 10 1014.8 1014.7 2.0
09/01:30am 9.6 6.2 7.5 87 1.0 SW 15 20 8 11 1014.5 1014.4 2.0
09/01:00am 9.8 5.4 7.2 84 1.2 SW 20 28 11 15 1014.4 1014.3 2.0
09/12:30am 8.5 5.6 6.5 87 0.9 WSW 11 15 6 8 1014.5 1014.4 2.0
09/12:00am 9.3 5.3 6.7 84 1.2 SW 17 20 9 11 1014.3 1014.2 2.0
 
Date/Time
CDT
Temp
°C
App
Temp
°C
Dew
Point
°C
Rel
Hum
%
Delta-T
°C
Wind Press
QNH
hPa
Press
MSL
hPa
Rain since
9am
mm
Dir  Spd
km/h
Gust
km/h
Spd
kts
Gust
kts
08/11:30pm 10.1 5.5 6.6 79 1.6 SW 20 24 11 13 1014.1 1014.0 2.0
08/11:00pm 10.6 5.5 7.8 83 1.4 SW 24 39 13 21 1014.1 1014.0 2.0
08/10:30pm 10.8 6.5 7.7 81 1.5 SW 20 32 11 17 1013.8 1013.7 2.0
08/10:00pm 11.7 7.3 7.4 75 2.1 WSW 20 28 11 15 1013.3 1013.2 2.0
08/09:30pm 12.1 7.7 7.6 74 2.2 SW 20 26 11 14 1012.7 1012.6 2.0
08/09:00pm 12.0 6.5 7.5 74 2.2 SW 26 37 14 20 1012.1 1012.0 2.0
08/08:30pm 12.9 6.5 6.9 67 2.9 SW 30 46 16 25 1011.6 1011.5 2.0
08/08:00pm 13.0 5.6 6.8 66 3.0 SW 35 52 19 28 1010.8 1010.7 2.0
08/07:30pm 13.6 6.5 5.3 57 3.9 SW 32 46 17 25 1010.2 1010.1 2.0
08/07:00pm 14.5 6.7 5.0 53 4.5 SW 35 57 19 31 1009.5 1009.4 2.0
08/06:30pm 14.6 6.6 7.6 63 3.5 SW 39 56 21 30 1008.8 1008.7 2.0
08/06:26pm 14.7 7.5 7.5 62 3.6 SW 35 54 19 29 1008.7 1008.6 2.0
08/06:00pm 14.6 6.7 9.2 70 2.8 SW 41 57 22 31 1008.2 1008.1 2.0
08/05:44pm 15.5 7.9 7.5 59 4.0 WSW 37 56 20 30 1007.8 1007.7 2.0
08/05:30pm 16.6 10.1 10.5 67 3.3 WSW 35 48 19 26 1007.6 1007.5 2.0
08/05:00pm 14.6 6.3 9.2 70 2.8 SW 43 57 23 31 1007.2 1007.1 2.0
08/04:42pm 16.9 8.0 7.8 55 4.6 WSW 44 63 24 34 1006.5 1006.4 2.0
08/04:30pm 17.4 10.1 10.3 63 3.8 SW 39 52 21 28 1006.5 1006.4 2.0
08/04:00pm 14.4 6.6 11.2 81 1.7 SW 43 70 23 38 1006.2 1006.1 2.0
08/03:47pm 17.8 9.6 8.4 54 4.8 SW 41 65 22 35 1005.8 1005.7 1.8
08/03:36pm 17.6 8.4 7.9 53 4.9 SW 46 61 25 33 1005.8 1005.7 1.8
08/03:30pm 18.5 9.5 9.0 54 5.0 WSW 46 61 25 33 1005.4 1005.3 1.8
08/03:00pm 16.7 6.3 9.1 61 4.0 WSW 54 72 29 39 1005.3 1005.2 1.8
08/02:36pm 16.2 7.9 9.4 64 3.5 WSW 43 61 23 33 1004.9 1004.8 1.8
08/02:30pm 15.9 8.6 10.2 69 3.0 WSW 39 56 21 30 1004.9 1004.8 1.8
08/02:00pm 17.1 7.2 8.3 56 4.5 WSW 50 70 27 38 1004.5 1004.4 1.2
08/01:32pm 17.6 8.9 9.8 60 4.1 WSW 46 67 25 36 1004.2 1004.1 1.2
08/01:30pm 17.5 9.1 9.7 60 4.1 WSW 44 61 24 33 1004.3 1004.2 1.2
08/01:00pm 14.5 6.5 10.5 77 2.1 WSW 43 67 23 36 1004.3 1004.2 1.2
08/12:30pm 15.1 8.1 13.6 91 0.8 WSW 43 69 23 37 1003.9 1003.8 1.2
08/12:12pm 17.0 8.5 9.2 60 4.1 W 44 63 24 34 1003.4 1003.3 0.2
08/12:00pm 17.2 8.5 10.1 63 3.8 W 46 59 25 32 1003.4 1003.3 0.2
08/11:35am 18.8 8.9 8.2 50 5.5 W 50 69 27 37 1003.0 1002.9 0.0
08/11:30am 18.5 7.9 8.5 52 5.2 W 54 69 29 37 1003.0 1002.9 0.0
08/11:00am 17.9 7.6 6.7 48 5.6 W 50 70 27 38 1002.7 1002.6 0.0
08/10:42am 17.8 9.8 10.4 62 4.0 W 43 61 23 33 1002.7 1002.6 0.0
08/10:30am 17.4 9.2 10.3 63 3.8 W 44 59 24 32 1002.7 1002.6 0.0
08/10:03am 13.6 4.9 10.0 79 1.9 W 46 65 25 35 1002.7 1002.6 0.0
08/10:00am 13.4 3.8 9.5 77 2.0 W 50 65 27 35 1002.7 1002.6 0.0
08/09:54am 14.7 5.8 9.1 69 2.9 W 46 65 25 35 1002.5 1002.4 0.0
08/09:30am 17.6 8.1 8.2 54 4.8 W 48 61 26 33 1002.1 1002.0 0.0
08/09:12am 16.1 6.7 7.3 56 4.4 W 46 65 25 35 1002.1 1002.0 0.0
08/09:00am 16.7 7.2 8.4 58 4.3 W 48 65 26 35 1002.1 1002.0 9.8
08/08:30am 15.9 7.3 10.2 69 3.0 WNW 46 61 25 33 1001.6 1001.4 9.8
08/08:15am 16.4 8.4 10.5 68 3.1 WNW 43 61 23 33 1001.1 1000.9 9.8
08/08:00am 15.5 8.2 10.1 70 2.8 WNW 39 50 21 27 1001.2 1001.0 9.8
08/07:30am 15.0 9.5 10.4 74 2.4 WNW 30 43 16 23 1000.7 1000.5 9.8
08/07:00am 14.1 7.5 9.9 76 2.2 W 35 46 19 25 1000.5 1000.3 9.8
08/06:30am 13.5 7.5 10.1 80 1.8 W 32 46 17 25 1000.2 1000.0 9.8
08/06:00am 14.0 8.2 10.8 81 1.7 WNW 32 43 17 23 999.9 999.7 9.8
08/05:30am 14.2 7.6 11.5 84 1.5 W 37 57 20 31 999.0 998.8 9.8
08/05:14am 14.6 8.0 12.6 88 1.1 W 39 57 21 31 998.5 998.3 9.8
08/05:00am 15.1 8.8 13.6 91 0.8 W 39 54 21 29 998.2 998.0 9.8
08/04:40am 17.4 11.0 15.4 88 1.2 WNW 43 61 23 33 997.4 997.2 9.8
08/04:30am 17.5 11.0 15.1 86 1.4 WNW 43 54 23 29 996.9 996.7 9.8
08/04:14am 17.9 9.5 15.5 86 1.4 WNW 54 72 29 39 996.7 996.5 9.8
08/04:06am 18.3 11.9 15.9 86 1.4 NW 44 72 24 39 996.3 996.1 9.8
08/04:01am 19.3 14.7 18.1 93 0.7 NW 39 57 21 31 996.1 995.9 9.8
08/04:00am 19.2 14.2 18.0 93 0.7 NW 41 57 22 31 995.9 995.8 9.8
08/03:30am 19.0 14.7 17.8 93 0.7 NNW 37 56 20 30 995.8 995.7 9.4
08/03:22am 18.9 14.6 17.7 93 0.7 NNW 37 56 20 30 995.9 995.8 9.2
08/03:00am 18.7 15.0 17.4 92 0.8 NNW 33 50 18 27 996.7 996.5 8.4
08/02:30am 18.6 13.8 16.6 88 1.2 NNW 37 52 20 28 997.0 996.8 8.0
08/02:27am 18.6 14.6 16.6 88 1.2 NNW 33 52 18 28 997.0 996.8 7.8
08/02:00am 19.7 16.8 15.1 75 2.7 NNW 24 33 13 18 997.2 997.0 6.4
08/01:30am 21.9 17.0 13.8 60 4.7 N 32 46 17 25 996.2 996.0 5.6
08/01:00am 21.6 17.2 14.0 62 4.4 NNE 30 46 16 25 996.2 996.0 5.6
08/12:32am 22.1 17.4 14.2 61 4.6 N 32 50 17 27 997.5 997.3 5.6
08/12:30am 21.9 17.6 14.3 62 4.5 N 30 46 16 25 997.6 997.4 5.6
08/12:12am 22.0 18.0 14.1 61 4.6 N 28 52 15 28 998.1 997.9 5.6
08/12:00am 20.4 18.8 15.0 71 3.2 N 17 24 9 13 998.7 998.5 5.6
 
Date/Time
CDT
Temp
°C
App
Temp
°C
Dew
Point
°C
Rel
Hum
%
Delta-T
°C
Wind Press
QNH
hPa
Press
MSL
hPa
Rain since
9am
mm
Dir  Spd
km/h
Gust
km/h
Spd
kts
Gust
kts
07/11:52pm 20.5 18.9 15.1 71 3.2 N 17 26 9 14 998.8 998.6 5.6
07/11:30pm 20.1 18.5 14.9 72 3.1 N 17 48 9 26 1000.8 1000.6 5.0
07/11:05pm 22.3 22.0 14.4 61 4.6 NNE 9 24 5 13 1000.8 1000.6 1.0
07/11:00pm 22.8 22.4 13.0 54 5.6 NE 7 11 4 6 998.8 998.6 0.2
07/10:30pm 22.1 20.8 13.7 59 4.9 NE 13 17 7 9 999.4 999.2 0.2
07/10:00pm 21.6 20.0 14.0 62 4.4 NNE 15 17 8 9 1000.4 1000.2 0.2
07/09:30pm 22.6 20.8 13.4 56 5.4 NNE 15 17 8 9 1001.2 1001.0 0.0
07/09:00pm 21.6 21.2 14.0 62 4.4 NNE 9 11 5 6 1002.2 1002.1 0.0
07/08:30pm 22.0 21.4 14.6 63 4.4 NNE 11 13 6 7 1002.7 1002.6 0.0
07/08:00pm 22.4 22.1 14.5 61 4.7 N 9 11 5 6 1003.3 1003.2 0.0
07/07:30pm 22.5 21.8 15.4 64 4.3 NW 13 20 7 11 1004.1 1004.0 0.0
07/07:00pm 25.3 21.2 11.5 42 7.8 NW 24 43 13 23 1004.4 1004.3 0.0
07/06:30pm 27.6 24.5 9.0 31 10.3 NNW 15 24 8 13 1003.9 1003.8 0.0
07/06:00pm 28.1 24.1 8.9 30 10.6 NNW 20 35 11 19 1004.4 1004.3 0.0
07/05:30pm 28.1 23.6 8.4 29 10.8 NW 22 32 12 17 1004.9 1004.8 0.0
07/05:00pm 28.0 23.8 8.3 29 10.7 NNW 20 26 11 14 1005.7 1005.6 0.0
07/04:30pm 28.1 23.4 7.9 28 11.0 NW 22 32 12 17 1006.6 1006.5 0.0
07/04:00pm 28.1 24.0 6.2 25 11.5 NW 17 32 9 17 1007.5 1007.4 0.0
07/03:30pm 29.3 24.6 6.0 23 12.3 NW 20 30 11 16 1008.3 1008.2 0.0
07/03:00pm 25.8 20.7 3.1 23 11.2 NNW 19 24 10 13 1009.2 1009.1 0.0
07/02:30pm 26.8 21.1 2.7 21 11.8 NNW 22 33 12 18 1010.0 1009.9 0.0
07/02:00pm 26.3 21.0 2.9 22 11.5 NW 20 33 11 18 1010.6 1010.5 0.0
07/01:30pm 25.1 20.4 3.1 24 10.8 NNW 17 32 9 17 1011.1 1011.0 0.0
07/01:00pm 25.5 20.8 2.9 23 11.0 NNW 17 28 9 15 1011.8 1011.7 0.0
07/12:30pm 24.1 19.8 3.4 26 10.1 N 15 28 8 15 1012.5 1012.4 0.0
07/12:00pm 22.8 18.3 4.3 30 9.1 NNE 17 24 9 13 1013.0 1012.9 0.0
07/11:30am 22.2 18.7 5.6 34 8.3 N 13 28 7 15 1013.5 1013.4 0.0
07/11:00am 21.0 17.5 5.4 36 7.7 N 13 20 7 11 1013.9 1013.8 0.0
07/10:30am 20.4 16.4 4.8 36 7.6 N 15 20 8 11 1014.3 1014.2 0.0
07/10:00am 19.6 16.3 4.5 37 7.3 NNE 11 19 6 10 1014.5 1014.4 0.0
07/09:30am 18.3 14.4 5.5 43 6.2 NNE 15 20 8 11 1014.7 1014.6 0.0
07/09:00am 17.3 13.8 5.6 46 5.7 NE 13 20 7 11 1014.9 1014.8 0.0
07/08:30am 16.0 13.6 8.7 62 3.7 NNE 11 17 6 9 1014.8 1014.7 0.0
07/08:00am 14.4 12.4 8.8 69 2.8 NE 9 13 5 7 1014.8 1014.7 0.0
07/07:30am 12.7 9.9 8.6 76 2.0 NE 13 17 7 9 1014.8 1014.7 0.0
07/07:00am 11.0 9.1 9.1 88 0.9 NE 9 13 5 7 1014.7 1014.6 0.0
07/06:30am 8.4 6.5 7.6 95 0.4 NE 7 9 4 5 1014.5 1014.4 0.0
07/06:00am 7.2 5.2 6.3 94 0.4 NE 6 7 3 4 1014.7 1014.6 0.0
07/05:30am 6.7 4.0 5.8 94 0.4 NE 9 13 5 7 1014.6 1014.5 0.0
07/05:00am 6.3 4.9 5.3 93 0.4 NNE 2 7 1 4 1014.6 1014.5 0.0
07/04:30am 5.8 3.9 4.8 93 0.4 SSE 4 7 2 4 1014.7 1014.6 0.0
07/04:00am 6.1 5.0 4.9 92 0.5 CALM 0 0 0 0 1014.5 1014.4 0.0
07/03:30am 6.5 5.4 5.1 91 0.6 CALM 0 0 0 0 1014.6 1014.5 0.0
07/03:00am 7.2 5.9 5.8 91 0.6 N 2 6 1 3 1014.6 1014.5 0.0
07/02:30am 7.5 6.6 6.0 90 0.7 CALM 0 0 0 0 1014.8 1014.7 0.0
07/02:00am 8.4 7.7 6.9 90 0.7 CALM 0 0 0 0 1015.0 1014.9 0.0
07/01:30am 8.4 7.6 6.7 89 0.8 CALM 0 0 0 0 1015.3 1015.2 0.0
07/01:00am 8.8 8.1 6.9 88 0.9 CALM 0 0 0 0 1015.6 1015.5 0.0
07/12:30am 9.4 8.8 7.3 87 1.0 CALM 0 0 0 0 1015.8 1015.7 0.0
07/12:00am 9.4 7.6 7.0 85 1.1 ESE 6 7 3 4 1015.9 1015.8 0.0
 
Date/Time
CDT
Temp
°C
App
Temp
°C
Dew
Point
°C
Rel
Hum
%
Delta-T
°C
Wind Press
QNH
hPa
Press
MSL
hPa
Rain since
9am
mm
Dir  Spd
km/h
Gust
km/h
Spd
kts
Gust
kts
06/11:30pm 9.6 7.2 6.9 83 1.3 SSE 9 9 5 5 1016.1 1016.0 0.0
06/11:00pm 10.0 8.0 7.3 83 1.3 SE 7 9 4 5 1016.1 1016.0 0.0
06/10:30pm 10.4 8.1 7.3 81 1.5 SSE 9 11 5 6 1016.3 1016.2 0.0
06/10:00pm 11.3 9.2 6.8 74 2.1 SSW 7 11 4 6 1016.3 1016.2 0.0
06/09:30pm 12.4 9.3 7.3 71 2.5 SW 13 15 7 8 1016.3 1016.2 0.0
06/09:00pm 13.9 10.1 7.4 65 3.2 SW 17 22 9 12 1016.0 1015.9 0.0
06/08:30pm 14.9 11.1 7.5 61 3.7 SW 17 22 9 12 1015.6 1015.5 0.0
06/08:00pm 16.6 12.9 7.8 56 4.4 SW 17 22 9 12 1015.2 1015.1 0.0
06/07:30pm 18.7 14.4 7.2 47 5.8 SW 19 24 10 13 1014.7 1014.6 0.0
06/07:00pm 19.8 15.3 6.2 41 6.8 SW 19 28 10 15 1014.6 1014.5 0.0
06/06:30pm 20.5 15.9 5.7 38 7.4 SW 19 24 10 13 1014.2 1014.1 0.0

Other Formats:

Comma delimited format used in spreadsheet applications
http://www.bom.gov.au/fwo/IDS60801/IDS60801.94820.axf

JavaScript Object Notation format (JSON) in row-major order
http://www.bom.gov.au/fwo/IDS60801/IDS60801.94820.json